sensor_id;sensor_type;location;lat;lon;timestamp;P1;durP1;ratioP1;P2;durP2;ratioP2
36497;SDS011;22513;51.222;6.480;2022-08-21T00:02:15;19.02;;;11.75;;
36497;SDS011;22513;51.222;6.480;2022-08-21T00:04:42;19.40;;;11.07;;
36497;SDS011;22513;51.222;6.480;2022-08-21T00:07:08;12.18;;;10.93;;
36497;SDS011;22513;51.222;6.480;2022-08-21T00:09:34;20.00;;;10.73;;
36497;SDS011;22513;51.222;6.480;2022-08-21T00:11:59;15.55;;;10.80;;
36497;SDS011;22513;51.222;6.480;2022-08-21T00:14:25;13.32;;;10.13;;
36497;SDS011;22513;51.222;6.480;2022-08-21T00:16:50;16.25;;;11.43;;
36497;SDS011;22513;51.222;6.480;2022-08-21T00:19:16;14.02;;;11.68;;
36497;SDS011;22513;51.222;6.480;2022-08-21T00:21:42;16.27;;;11.00;;
36497;SDS011;22513;51.222;6.480;2022-08-21T00:24:07;14.65;;;11.93;;
36497;SDS011;22513;51.222;6.480;2022-08-21T00:26:34;14.23;;;12.38;;
36497;SDS011;22513;51.222;6.480;2022-08-21T00:28:59;15.75;;;11.70;;
36497;SDS011;22513;51.222;6.480;2022-08-21T00:31:25;19.33;;;11.77;;
36497;SDS011;22513;51.222;6.480;2022-08-21T00:33:50;16.08;;;11.25;;
36497;SDS011;22513;51.222;6.480;2022-08-21T00:36:16;18.65;;;12.32;;
36497;SDS011;22513;51.222;6.480;2022-08-21T00:38:42;22.75;;;12.20;;
36497;SDS011;22513;51.222;6.480;2022-08-21T00:41:09;17.10;;;12.32;;
36497;SDS011;22513;51.222;6.480;2022-08-21T00:43:36;14.45;;;11.23;;
36497;SDS011;22513;51.222;6.480;2022-08-21T00:46:03;15.80;;;12.43;;
36497;SDS011;22513;51.222;6.480;2022-08-21T00:48:29;19.05;;;11.98;;
36497;SDS011;22513;51.222;6.480;2022-08-21T00:50:57;18.63;;;12.60;;
36497;SDS011;22513;51.222;6.480;2022-08-21T00:53:23;19.83;;;13.20;;
36497;SDS011;22513;51.222;6.480;2022-08-21T00:55:50;19.30;;;12.27;;
36497;SDS011;22513;51.222;6.480;2022-08-21T00:58:16;20.52;;;13.00;;
36497;SDS011;22513;51.222;6.480;2022-08-21T01:00:43;21.27;;;15.60;;
36497;SDS011;22513;51.222;6.480;2022-08-21T01:03:13;18.02;;;13.52;;
36497;SDS011;22513;51.222;6.480;2022-08-21T01:05:42;15.07;;;12.60;;
36497;SDS011;22513;51.222;6.480;2022-08-21T01:08:09;20.73;;;13.70;;
36497;SDS011;22513;51.222;6.480;2022-08-21T01:10:36;19.52;;;12.98;;
36497;SDS011;22513;51.222;6.480;2022-08-21T01:13:03;17.77;;;13.98;;
36497;SDS011;22513;51.222;6.480;2022-08-21T01:15:34;22.83;;;15.20;;
36497;SDS011;22513;51.222;6.480;2022-08-21T01:18:05;21.33;;;14.35;;
36497;SDS011;22513;51.222;6.480;2022-08-21T01:20:33;17.85;;;13.15;;
36497;SDS011;22513;51.222;6.480;2022-08-21T01:23:01;20.50;;;14.10;;
36497;SDS011;22513;51.222;6.480;2022-08-21T01:25:28;26.27;;;13.95;;
36497;SDS011;22513;51.222;6.480;2022-08-21T01:27:54;19.27;;;14.30;;
36497;SDS011;22513;51.222;6.480;2022-08-21T01:30:23;21.20;;;15.88;;
36497;SDS011;22513;51.222;6.480;2022-08-21T01:35:17;26.45;;;14.93;;
36497;SDS011;22513;51.222;6.480;2022-08-21T01:37:44;23.45;;;14.85;;
36497;SDS011;22513;51.222;6.480;2022-08-21T01:40:10;18.42;;;15.63;;
36497;SDS011;22513;51.222;6.480;2022-08-21T01:42:37;24.05;;;15.13;;
36497;SDS011;22513;51.222;6.480;2022-08-21T01:45:04;23.58;;;16.42;;
36497;SDS011;22513;51.222;6.480;2022-08-21T01:47:32;22.13;;;15.32;;
36497;SDS011;22513;51.222;6.480;2022-08-21T01:49:58;25.60;;;16.55;;
36497;SDS011;22513;51.222;6.480;2022-08-21T01:52:23;30.45;;;18.40;;
36497;SDS011;22513;51.222;6.480;2022-08-21T01:54:49;27.70;;;18.58;;
36497;SDS011;22513;51.222;6.480;2022-08-21T01:57:15;23.95;;;17.58;;
36497;SDS011;22513;51.222;6.480;2022-08-21T01:59:41;25.98;;;17.15;;
36497;SDS011;22513;51.222;6.480;2022-08-21T02:02:07;24.55;;;17.35;;
36497;SDS011;22513;51.222;6.480;2022-08-21T02:04:33;21.58;;;17.38;;
36497;SDS011;22513;51.222;6.480;2022-08-21T02:06:59;24.42;;;17.10;;
36497;SDS011;22513;51.222;6.480;2022-08-21T02:09:25;24.50;;;17.73;;
36497;SDS011;22513;51.222;6.480;2022-08-21T02:11:51;21.73;;;17.55;;
36497;SDS011;22513;51.222;6.480;2022-08-21T02:14:17;20.75;;;16.88;;
36497;SDS011;22513;51.222;6.480;2022-08-21T02:16:43;26.00;;;19.45;;
36497;SDS011;22513;51.222;6.480;2022-08-21T02:19:10;22.67;;;18.33;;
36497;SDS011;22513;51.222;6.480;2022-08-21T02:21:37;24.33;;;18.55;;
36497;SDS011;22513;51.222;6.480;2022-08-21T02:24:03;24.40;;;18.70;;
36497;SDS011;22513;51.222;6.480;2022-08-21T02:26:29;23.55;;;17.90;;
36497;SDS011;22513;51.222;6.480;2022-08-21T02:28:55;21.08;;;17.17;;
36497;SDS011;22513;51.222;6.480;2022-08-21T02:31:20;27.20;;;18.25;;
36497;SDS011;22513;51.222;6.480;2022-08-21T02:33:46;21.58;;;19.00;;
36497;SDS011;22513;51.222;6.480;2022-08-21T02:36:12;22.65;;;18.10;;
36497;SDS011;22513;51.222;6.480;2022-08-21T02:38:38;30.42;;;19.92;;
36497;SDS011;22513;51.222;6.480;2022-08-21T02:41:06;23.60;;;18.05;;
36497;SDS011;22513;51.222;6.480;2022-08-21T02:43:34;29.10;;;17.30;;
36497;SDS011;22513;51.222;6.480;2022-08-21T02:46:00;24.25;;;19.05;;
36497;SDS011;22513;51.222;6.480;2022-08-21T02:48:28;29.65;;;19.20;;
36497;SDS011;22513;51.222;6.480;2022-08-21T02:50:56;26.65;;;18.80;;
36497;SDS011;22513;51.222;6.480;2022-08-21T02:53:29;23.77;;;19.98;;
36497;SDS011;22513;51.222;6.480;2022-08-21T02:55:56;30.67;;;19.23;;
36497;SDS011;22513;51.222;6.480;2022-08-21T02:58:25;27.17;;;19.10;;
36497;SDS011;22513;51.222;6.480;2022-08-21T03:00:56;25.80;;;18.33;;
36497;SDS011;22513;51.222;6.480;2022-08-21T03:03:23;27.40;;;18.83;;
36497;SDS011;22513;51.222;6.480;2022-08-21T03:05:49;22.38;;;18.42;;
36497;SDS011;22513;51.222;6.480;2022-08-21T03:08:15;31.25;;;20.65;;
36497;SDS011;22513;51.222;6.480;2022-08-21T03:10:43;26.70;;;20.73;;
36497;SDS011;22513;51.222;6.480;2022-08-21T03:13:14;25.73;;;19.98;;
36497;SDS011;22513;51.222;6.480;2022-08-21T03:15:40;25.67;;;20.90;;
36497;SDS011;22513;51.222;6.480;2022-08-21T03:18:07;29.75;;;20.50;;
36497;SDS011;22513;51.222;6.480;2022-08-21T03:20:34;23.77;;;19.27;;
36497;SDS011;22513;51.222;6.480;2022-08-21T03:23:04;26.33;;;20.85;;
36497;SDS011;22513;51.222;6.480;2022-08-21T03:25:31;28.85;;;19.65;;
36497;SDS011;22513;51.222;6.480;2022-08-21T03:27:57;27.88;;;18.73;;
36497;SDS011;22513;51.222;6.480;2022-08-21T03:30:24;28.10;;;19.05;;
36497;SDS011;22513;51.222;6.480;2022-08-21T03:32:50;30.83;;;18.52;;
36497;SDS011;22513;51.222;6.480;2022-08-21T03:35:16;28.40;;;19.13;;
36497;SDS011;22513;51.222;6.480;2022-08-21T03:37:42;26.45;;;18.38;;
36497;SDS011;22513;51.222;6.480;2022-08-21T03:40:09;29.17;;;18.75;;
36497;SDS011;22513;51.222;6.480;2022-08-21T03:42:36;23.83;;;16.70;;
36497;SDS011;22513;51.222;6.480;2022-08-21T03:45:03;20.23;;;16.33;;
36497;SDS011;22513;51.222;6.480;2022-08-21T03:47:29;24.05;;;15.48;;
36497;SDS011;22513;51.222;6.480;2022-08-21T03:49:55;26.35;;;15.52;;
36497;SDS011;22513;51.222;6.480;2022-08-21T03:52:21;22.95;;;16.05;;
36497;SDS011;22513;51.222;6.480;2022-08-21T03:54:46;17.88;;;14.18;;
36497;SDS011;22513;51.222;6.480;2022-08-21T03:57:12;22.27;;;13.23;;
36497;SDS011;22513;51.222;6.480;2022-08-21T03:59:38;21.63;;;13.52;;
36497;SDS011;22513;51.222;6.480;2022-08-21T04:02:05;18.38;;;12.65;;
36497;SDS011;22513;51.222;6.480;2022-08-21T04:04:32;16.50;;;12.30;;
36497;SDS011;22513;51.222;6.480;2022-08-21T04:06:58;21.42;;;12.27;;
36497;SDS011;22513;51.222;6.480;2022-08-21T04:09:24;14.25;;;11.18;;
36497;SDS011;22513;51.222;6.480;2022-08-21T04:11:50;18.52;;;11.60;;
36497;SDS011;22513;51.222;6.480;2022-08-21T04:14:16;16.25;;;12.25;;
36497;SDS011;22513;51.222;6.480;2022-08-21T04:16:42;19.58;;;11.77;;
36497;SDS011;22513;51.222;6.480;2022-08-21T04:19:09;15.73;;;11.15;;
36497;SDS011;22513;51.222;6.480;2022-08-21T04:21:36;14.35;;;10.68;;
36497;SDS011;22513;51.222;6.480;2022-08-21T04:24:02;17.63;;;11.27;;
36497;SDS011;22513;51.222;6.480;2022-08-21T04:26:29;16.15;;;11.63;;
36497;SDS011;22513;51.222;6.480;2022-08-21T04:28:56;16.27;;;11.50;;
36497;SDS011;22513;51.222;6.480;2022-08-21T04:31:22;17.15;;;10.77;;
36497;SDS011;22513;51.222;6.480;2022-08-21T04:33:49;14.57;;;11.70;;
36497;SDS011;22513;51.222;6.480;2022-08-21T04:36:15;15.57;;;11.25;;
36497;SDS011;22513;51.222;6.480;2022-08-21T04:38:41;15.15;;;10.77;;
36497;SDS011;22513;51.222;6.480;2022-08-21T04:41:06;14.07;;;9.45;;
36497;SDS011;22513;51.222;6.480;2022-08-21T04:43:32;16.65;;;10.52;;
36497;SDS011;22513;51.222;6.480;2022-08-21T04:45:58;14.82;;;10.65;;
36497;SDS011;22513;51.222;6.480;2022-08-21T04:48:25;24.17;;;10.90;;
36497;SDS011;22513;51.222;6.480;2022-08-21T04:53:24;13.05;;;9.35;;
36497;SDS011;22513;51.222;6.480;2022-08-21T04:56:40;15.77;;;8.18;;
36497;SDS011;22513;51.222;6.480;2022-08-21T04:59:14;8.77;;;6.85;;
36497;SDS011;22513;51.222;6.480;2022-08-21T05:01:43;14.25;;;7.00;;
36497;SDS011;22513;51.222;6.480;2022-08-21T05:04:11;9.95;;;5.80;;
36497;SDS011;22513;51.222;6.480;2022-08-21T05:06:41;10.77;;;5.78;;
36497;SDS011;22513;51.222;6.480;2022-08-21T05:09:11;9.17;;;5.27;;
36497;SDS011;22513;51.222;6.480;2022-08-21T05:11:40;8.43;;;4.45;;
36497;SDS011;22513;51.222;6.480;2022-08-21T05:14:06;12.10;;;5.13;;
36497;SDS011;22513;51.222;6.480;2022-08-21T05:16:32;10.38;;;4.57;;
36497;SDS011;22513;51.222;6.480;2022-08-21T05:18:58;10.68;;;4.30;;
36497;SDS011;22513;51.222;6.480;2022-08-21T05:21:23;10.23;;;3.70;;
36497;SDS011;22513;51.222;6.480;2022-08-21T05:23:49;9.25;;;4.00;;
36497;SDS011;22513;51.222;6.480;2022-08-21T05:26:15;7.15;;;3.55;;
36497;SDS011;22513;51.222;6.480;2022-08-21T05:28:40;9.32;;;3.78;;
36497;SDS011;22513;51.222;6.480;2022-08-21T05:31:06;7.28;;;3.40;;
36497;SDS011;22513;51.222;6.480;2022-08-21T05:33:31;5.82;;;3.30;;
36497;SDS011;22513;51.222;6.480;2022-08-21T05:35:57;6.43;;;3.42;;
36497;SDS011;22513;51.222;6.480;2022-08-21T05:38:23;7.53;;;3.30;;
36497;SDS011;22513;51.222;6.480;2022-08-21T05:40:52;8.07;;;2.87;;
36497;SDS011;22513;51.222;6.480;2022-08-21T05:43:18;6.80;;;2.78;;
36497;SDS011;22513;51.222;6.480;2022-08-21T05:45:43;8.32;;;2.90;;
36497;SDS011;22513;51.222;6.480;2022-08-21T05:48:11;7.65;;;3.13;;
36497;SDS011;22513;51.222;6.480;2022-08-21T05:53:05;6.63;;;2.90;;
36497;SDS011;22513;51.222;6.480;2022-08-21T05:55:31;4.97;;;2.17;;
36497;SDS011;22513;51.222;6.480;2022-08-21T05:57:57;5.57;;;2.42;;
36497;SDS011;22513;51.222;6.480;2022-08-21T06:00:22;7.88;;;2.30;;
36497;SDS011;22513;51.222;6.480;2022-08-21T06:02:48;6.95;;;2.40;;
36497;SDS011;22513;51.222;6.480;2022-08-21T06:05:15;7.22;;;2.45;;
36497;SDS011;22513;51.222;6.480;2022-08-21T06:07:41;6.57;;;2.30;;
36497;SDS011;22513;51.222;6.480;2022-08-21T06:10:07;5.32;;;2.20;;
36497;SDS011;22513;51.222;6.480;2022-08-21T06:12:33;7.88;;;2.47;;
36497;SDS011;22513;51.222;6.480;2022-08-21T06:14:58;6.57;;;2.78;;
36497;SDS011;22513;51.222;6.480;2022-08-21T06:17:24;6.25;;;2.25;;
36497;SDS011;22513;51.222;6.480;2022-08-21T06:19:53;5.40;;;2.15;;
36497;SDS011;22513;51.222;6.480;2022-08-21T06:22:19;6.40;;;2.17;;
36497;SDS011;22513;51.222;6.480;2022-08-21T06:24:45;6.88;;;2.20;;
36497;SDS011;22513;51.222;6.480;2022-08-21T06:27:11;7.97;;;2.25;;
36497;SDS011;22513;51.222;6.480;2022-08-21T06:29:37;6.85;;;2.40;;
36497;SDS011;22513;51.222;6.480;2022-08-21T06:32:03;6.50;;;2.30;;
36497;SDS011;22513;51.222;6.480;2022-08-21T06:34:32;7.20;;;2.08;;
36497;SDS011;22513;51.222;6.480;2022-08-21T06:37:01;4.68;;;1.65;;
36497;SDS011;22513;51.222;6.480;2022-08-21T06:39:27;7.10;;;2.13;;
36497;SDS011;22513;51.222;6.480;2022-08-21T06:41:52;4.63;;;1.63;;
36497;SDS011;22513;51.222;6.480;2022-08-21T06:44:19;5.93;;;2.03;;
36497;SDS011;22513;51.222;6.480;2022-08-21T06:46:45;5.53;;;1.98;;
36497;SDS011;22513;51.222;6.480;2022-08-21T06:49:11;4.13;;;1.95;;
36497;SDS011;22513;51.222;6.480;2022-08-21T06:51:37;5.18;;;2.10;;
36497;SDS011;22513;51.222;6.480;2022-08-21T06:54:03;7.40;;;2.08;;
36497;SDS011;22513;51.222;6.480;2022-08-21T06:56:29;5.40;;;1.70;;
36497;SDS011;22513;51.222;6.480;2022-08-21T06:58:55;4.47;;;1.50;;
36497;SDS011;22513;51.222;6.480;2022-08-21T07:01:21;7.35;;;1.95;;
36497;SDS011;22513;51.222;6.480;2022-08-21T07:06:15;5.28;;;1.88;;
36497;SDS011;22513;51.222;6.480;2022-08-21T07:08:42;5.50;;;1.52;;
36497;SDS011;22513;51.222;6.480;2022-08-21T07:11:09;5.00;;;1.58;;
36497;SDS011;22513;51.222;6.480;2022-08-21T07:13:38;3.80;;;1.50;;
36497;SDS011;22513;51.222;6.480;2022-08-21T07:16:04;5.43;;;1.85;;
36497;SDS011;22513;51.222;6.480;2022-08-21T07:18:30;4.22;;;0.90;;
36497;SDS011;22513;51.222;6.480;2022-08-21T07:20:56;5.57;;;1.67;;
36497;SDS011;22513;51.222;6.480;2022-08-21T07:23:22;3.63;;;1.30;;
36497;SDS011;22513;51.222;6.480;2022-08-21T07:25:52;3.78;;;1.23;;
36497;SDS011;22513;51.222;6.480;2022-08-21T07:28:18;5.97;;;1.50;;
36497;SDS011;22513;51.222;6.480;2022-08-21T07:30:44;5.03;;;1.23;;
36497;SDS011;22513;51.222;6.480;2022-08-21T07:33:11;3.85;;;1.63;;
36497;SDS011;22513;51.222;6.480;2022-08-21T07:35:36;5.82;;;1.80;;
36497;SDS011;22513;51.222;6.480;2022-08-21T07:38:02;3.55;;;1.38;;
36497;SDS011;22513;51.222;6.480;2022-08-21T07:40:29;4.60;;;1.13;;
36497;SDS011;22513;51.222;6.480;2022-08-21T07:42:54;6.18;;;1.60;;
36497;SDS011;22513;51.222;6.480;2022-08-21T07:45:21;3.83;;;1.27;;
36497;SDS011;22513;51.222;6.480;2022-08-21T07:50:15;3.75;;;1.60;;
36497;SDS011;22513;51.222;6.480;2022-08-21T07:52:41;4.28;;;1.23;;
36497;SDS011;22513;51.222;6.480;2022-08-21T07:55:12;4.75;;;1.40;;
36497;SDS011;22513;51.222;6.480;2022-08-21T07:57:40;4.30;;;1.20;;
36497;SDS011;22513;51.222;6.480;2022-08-21T08:00:07;2.95;;;1.00;;
36497;SDS011;22513;51.222;6.480;2022-08-21T08:02:35;3.22;;;1.13;;
36497;SDS011;22513;51.222;6.480;2022-08-21T08:05:04;3.45;;;1.05;;
36497;SDS011;22513;51.222;6.480;2022-08-21T08:07:34;4.43;;;1.30;;
36497;SDS011;22513;51.222;6.480;2022-08-21T08:10:00;5.80;;;1.30;;
36497;SDS011;22513;51.222;6.480;2022-08-21T08:12:27;5.07;;;1.80;;
36497;SDS011;22513;51.222;6.480;2022-08-21T08:14:57;5.63;;;1.45;;
36497;SDS011;22513;51.222;6.480;2022-08-21T08:17:23;4.78;;;1.25;;
36497;SDS011;22513;51.222;6.480;2022-08-21T08:19:50;3.88;;;1.30;;
36497;SDS011;22513;51.222;6.480;2022-08-21T08:22:16;4.30;;;0.93;;
36497;SDS011;22513;51.222;6.480;2022-08-21T08:27:10;2.97;;;0.90;;
36497;SDS011;22513;51.222;6.480;2022-08-21T08:32:06;2.22;;;0.77;;
36497;SDS011;22513;51.222;6.480;2022-08-21T08:34:35;3.47;;;0.95;;
36497;SDS011;22513;51.222;6.480;2022-08-21T08:37:02;2.72;;;1.25;;
36497;SDS011;22513;51.222;6.480;2022-08-21T08:39:28;3.45;;;0.80;;
36497;SDS011;22513;51.222;6.480;2022-08-21T08:42:04;3.08;;;1.08;;
36497;SDS011;22513;51.222;6.480;2022-08-21T08:44:30;2.58;;;1.02;;
36497;SDS011;22513;51.222;6.480;2022-08-21T08:46:56;3.30;;;1.05;;
36497;SDS011;22513;51.222;6.480;2022-08-21T08:52:10;3.00;;;1.17;;
36497;SDS011;22513;51.222;6.480;2022-08-21T08:57:19;3.50;;;0.77;;
36497;SDS011;22513;51.222;6.480;2022-08-21T08:59:48;2.67;;;1.15;;
36497;SDS011;22513;51.222;6.480;2022-08-21T09:02:18;4.82;;;0.90;;
36497;SDS011;22513;51.222;6.480;2022-08-21T09:04:46;6.00;;;1.55;;
36497;SDS011;22513;51.222;6.480;2022-08-21T09:13:07;5.78;;;1.08;;
36497;SDS011;22513;51.222;6.480;2022-08-21T09:15:54;3.63;;;1.05;;
36497;SDS011;22513;51.222;6.480;2022-08-21T09:21:15;7.35;;;1.23;;
36497;SDS011;22513;51.222;6.480;2022-08-21T09:26:54;3.90;;;1.48;;
36497;SDS011;22513;51.222;6.480;2022-08-21T09:29:33;3.60;;;0.80;;
36497;SDS011;22513;51.222;6.480;2022-08-21T09:32:09;5.82;;;1.35;;
36497;SDS011;22513;51.222;6.480;2022-08-21T09:37:24;6.32;;;2.55;;
36497;SDS011;22513;51.222;6.480;2022-08-21T09:39:50;2.92;;;1.17;;
36497;SDS011;22513;51.222;6.480;2022-08-21T09:42:23;4.30;;;1.30;;
36497;SDS011;22513;51.222;6.480;2022-08-21T09:45:05;3.00;;;1.63;;
36497;SDS011;22513;51.222;6.480;2022-08-21T09:47:35;2.97;;;1.10;;
36497;SDS011;22513;51.222;6.480;2022-08-21T09:50:09;4.88;;;1.17;;
36497;SDS011;22513;51.222;6.480;2022-08-21T09:52:45;3.10;;;1.00;;
36497;SDS011;22513;51.222;6.480;2022-08-21T09:55:19;5.05;;;1.35;;
36497;SDS011;22513;51.222;6.480;2022-08-21T09:58:07;4.35;;;1.25;;
36497;SDS011;22513;51.222;6.480;2022-08-21T10:00:33;6.97;;;1.40;;
36497;SDS011;22513;51.222;6.480;2022-08-21T10:03:19;4.15;;;0.95;;
36497;SDS011;22513;51.222;6.480;2022-08-21T10:06:05;2.05;;;0.90;;
36497;SDS011;22513;51.222;6.480;2022-08-21T10:08:35;3.95;;;0.90;;
36497;SDS011;22513;51.222;6.480;2022-08-21T10:13:39;2.05;;;0.98;;
36497;SDS011;22513;51.222;6.480;2022-08-21T10:21:29;2.60;;;0.90;;
36497;SDS011;22513;51.222;6.480;2022-08-21T10:24:12;3.35;;;0.77;;
36497;SDS011;22513;51.222;6.480;2022-08-21T10:35:13;2.25;;;0.80;;
36497;SDS011;22513;51.222;6.480;2022-08-21T10:45:41;1.90;;;0.75;;
36497;SDS011;22513;51.222;6.480;2022-08-21T10:48:16;2.75;;;1.05;;
36497;SDS011;22513;51.222;6.480;2022-08-21T10:51:15;2.60;;;0.95;;
36497;SDS011;22513;51.222;6.480;2022-08-21T10:54:03;3.85;;;1.50;;
36497;SDS011;22513;51.222;6.480;2022-08-21T10:56:42;6.35;;;1.67;;
36497;SDS011;22513;51.222;6.480;2022-08-21T11:01:58;1.95;;;1.00;;
36497;SDS011;22513;51.222;6.480;2022-08-21T11:04:31;5.55;;;0.90;;
36497;SDS011;22513;51.222;6.480;2022-08-21T11:09:44;3.25;;;1.13;;
36497;SDS011;22513;51.222;6.480;2022-08-21T11:17:52;3.83;;;1.02;;
36497;SDS011;22513;51.222;6.480;2022-08-21T11:20:30;5.03;;;1.35;;
36497;SDS011;22513;51.222;6.480;2022-08-21T11:26:02;3.42;;;1.20;;
36497;SDS011;22513;51.222;6.480;2022-08-21T11:28:35;2.85;;;0.90;;
36497;SDS011;22513;51.222;6.480;2022-08-21T11:31:22;2.60;;;1.00;;
36497;SDS011;22513;51.222;6.480;2022-08-21T11:47:22;2.15;;;1.05;;
36497;SDS011;22513;51.222;6.480;2022-08-21T11:50:15;3.17;;;1.00;;
36497;SDS011;22513;51.222;6.480;2022-08-21T11:52:44;3.95;;;1.05;;
36497;SDS011;22513;51.222;6.480;2022-08-21T11:55:18;5.65;;;1.42;;
36497;SDS011;22513;51.222;6.480;2022-08-21T11:57:51;3.15;;;1.10;;
36497;SDS011;22513;51.222;6.480;2022-08-21T12:00:24;2.95;;;0.90;;
36497;SDS011;22513;51.222;6.480;2022-08-21T12:02:55;1.77;;;0.80;;
36497;SDS011;22513;51.222;6.480;2022-08-21T12:05:31;5.00;;;1.60;;
36497;SDS011;22513;51.222;6.480;2022-08-21T12:08:55;4.97;;;1.00;;
36497;SDS011;22513;51.222;6.480;2022-08-21T12:11:08;4.70;;;0.95;;
36497;SDS011;22513;51.222;6.480;2022-08-21T12:16:34;3.38;;;1.30;;
36497;SDS011;22513;51.222;6.480;2022-08-21T12:19:12;3.33;;;1.08;;
36497;SDS011;22513;51.222;6.480;2022-08-21T12:24:35;2.95;;;1.17;;
36497;SDS011;22513;51.222;6.480;2022-08-21T12:29:48;3.28;;;1.33;;
36497;SDS011;22513;51.222;6.480;2022-08-21T12:37:20;5.50;;;1.00;;
36497;SDS011;22513;51.222;6.480;2022-08-21T12:39:51;3.38;;;0.82;;
36497;SDS011;22513;51.222;6.480;2022-08-21T12:42:23;5.35;;;1.23;;
36497;SDS011;22513;51.222;6.480;2022-08-21T12:44:58;2.08;;;0.85;;
36497;SDS011;22513;51.222;6.480;2022-08-21T12:50:15;2.72;;;0.90;;
36497;SDS011;22513;51.222;6.480;2022-08-21T12:53:15;4.05;;;0.98;;
36497;SDS011;22513;51.222;6.480;2022-08-21T12:55:53;5.50;;;1.30;;
36497;SDS011;22513;51.222;6.480;2022-08-21T12:58:28;2.25;;;1.13;;
36497;SDS011;22513;51.222;6.480;2022-08-21T13:03:26;3.80;;;0.95;;
36497;SDS011;22513;51.222;6.480;2022-08-21T13:05:52;2.67;;;1.40;;
36497;SDS011;22513;51.222;6.480;2022-08-21T13:08:20;3.78;;;1.08;;
36497;SDS011;22513;51.222;6.480;2022-08-21T13:10:49;2.67;;;1.08;;
36497;SDS011;22513;51.222;6.480;2022-08-21T13:13:23;2.97;;;1.15;;
36497;SDS011;22513;51.222;6.480;2022-08-21T13:15:55;2.92;;;1.10;;
36497;SDS011;22513;51.222;6.480;2022-08-21T13:18:28;3.33;;;1.00;;
36497;SDS011;22513;51.222;6.480;2022-08-21T13:21:06;2.33;;;0.90;;
36497;SDS011;22513;51.222;6.480;2022-08-21T13:23:37;3.17;;;1.00;;
36497;SDS011;22513;51.222;6.480;2022-08-21T13:26:13;4.68;;;1.10;;
36497;SDS011;22513;51.222;6.480;2022-08-21T13:28:39;4.20;;;1.20;;
36497;SDS011;22513;51.222;6.480;2022-08-21T13:31:06;3.75;;;1.05;;
36497;SDS011;22513;51.222;6.480;2022-08-21T13:33:35;3.13;;;0.93;;
36497;SDS011;22513;51.222;6.480;2022-08-21T13:38:39;3.75;;;1.15;;
36497;SDS011;22513;51.222;6.480;2022-08-21T13:41:20;3.22;;;1.02;;
36497;SDS011;22513;51.222;6.480;2022-08-21T13:43:57;4.30;;;1.00;;
36497;SDS011;22513;51.222;6.480;2022-08-21T13:46:30;4.88;;;1.33;;
36497;SDS011;22513;51.222;6.480;2022-08-21T13:48:59;3.15;;;1.00;;
36497;SDS011;22513;51.222;6.480;2022-08-21T13:51:27;2.03;;;0.80;;
36497;SDS011;22513;51.222;6.480;2022-08-21T13:53:55;3.40;;;1.10;;
36497;SDS011;22513;51.222;6.480;2022-08-21T13:56:25;4.15;;;1.23;;
36497;SDS011;22513;51.222;6.480;2022-08-21T13:58:56;2.78;;;0.77;;
36497;SDS011;22513;51.222;6.480;2022-08-21T14:01:34;2.20;;;0.82;;
36497;SDS011;22513;51.222;6.480;2022-08-21T14:06:50;5.13;;;1.00;;
36497;SDS011;22513;51.222;6.480;2022-08-21T14:11:53;2.65;;;1.00;;
36497;SDS011;22513;51.222;6.480;2022-08-21T14:22:21;1.63;;;0.95;;
36497;SDS011;22513;51.222;6.480;2022-08-21T14:25:06;1.35;;;0.80;;
36497;SDS011;22513;51.222;6.480;2022-08-21T14:27:36;4.68;;;1.10;;
36497;SDS011;22513;51.222;6.480;2022-08-21T14:32:55;2.97;;;1.02;;
36497;SDS011;22513;51.222;6.480;2022-08-21T14:35:21;3.17;;;0.90;;
36497;SDS011;22513;51.222;6.480;2022-08-21T14:37:47;2.85;;;0.90;;
36497;SDS011;22513;51.222;6.480;2022-08-21T14:40:17;2.60;;;0.95;;
36497;SDS011;22513;51.222;6.480;2022-08-21T14:42:43;2.85;;;0.93;;
36497;SDS011;22513;51.222;6.480;2022-08-21T14:45:15;1.80;;;0.82;;
36497;SDS011;22513;51.222;6.480;2022-08-21T14:47:41;4.15;;;1.13;;
36497;SDS011;22513;51.222;6.480;2022-08-21T14:50:11;4.60;;;1.33;;
36497;SDS011;22513;51.222;6.480;2022-08-21T14:52:37;3.40;;;0.90;;
36497;SDS011;22513;51.222;6.480;2022-08-21T14:55:05;3.50;;;0.70;;
36497;SDS011;22513;51.222;6.480;2022-08-21T14:57:32;1.58;;;0.93;;
36497;SDS011;22513;51.222;6.480;2022-08-21T15:02:26;3.75;;;0.88;;
36497;SDS011;22513;51.222;6.480;2022-08-21T15:04:52;4.32;;;1.52;;
36497;SDS011;22513;51.222;6.480;2022-08-21T15:07:17;3.67;;;1.00;;
36497;SDS011;22513;51.222;6.480;2022-08-21T15:09:43;2.67;;;1.13;;
36497;SDS011;22513;51.222;6.480;2022-08-21T15:12:08;2.55;;;1.33;;
36497;SDS011;22513;51.222;6.480;2022-08-21T15:14:38;5.22;;;1.30;;
36497;SDS011;22513;51.222;6.480;2022-08-21T15:17:08;6.63;;;1.60;;
36497;SDS011;22513;51.222;6.480;2022-08-21T15:19:35;5.63;;;1.38;;
36497;SDS011;22513;51.222;6.480;2022-08-21T15:22:02;2.78;;;0.90;;
36497;SDS011;22513;51.222;6.480;2022-08-21T15:24:28;3.38;;;1.17;;
36497;SDS011;22513;51.222;6.480;2022-08-21T15:26:54;2.63;;;0.98;;
36497;SDS011;22513;51.222;6.480;2022-08-21T15:29:21;5.75;;;1.40;;
36497;SDS011;22513;51.222;6.480;2022-08-21T15:31:51;2.55;;;1.10;;
36497;SDS011;22513;51.222;6.480;2022-08-21T15:34:19;3.08;;;1.05;;
36497;SDS011;22513;51.222;6.480;2022-08-21T15:36:45;2.90;;;1.48;;
36497;SDS011;22513;51.222;6.480;2022-08-21T15:39:11;2.50;;;0.90;;
36497;SDS011;22513;51.222;6.480;2022-08-21T15:41:36;4.85;;;1.10;;
36497;SDS011;22513;51.222;6.480;2022-08-21T15:44:02;3.53;;;1.00;;
36497;SDS011;22513;51.222;6.480;2022-08-21T15:46:28;2.13;;;0.93;;
36497;SDS011;22513;51.222;6.480;2022-08-21T15:48:54;2.97;;;1.13;;
36497;SDS011;22513;51.222;6.480;2022-08-21T15:51:19;3.05;;;1.10;;
36497;SDS011;22513;51.222;6.480;2022-08-21T15:53:45;3.40;;;1.20;;
36497;SDS011;22513;51.222;6.480;2022-08-21T15:56:53;2.28;;;1.10;;
36497;SDS011;22513;51.222;6.480;2022-08-21T15:59:02;3.28;;;1.20;;
36497;SDS011;22513;51.222;6.480;2022-08-21T16:01:30;3.00;;;0.90;;
36497;SDS011;22513;51.222;6.480;2022-08-21T16:03:56;4.88;;;1.10;;
36497;SDS011;22513;51.222;6.480;2022-08-21T16:06:22;1.60;;;0.77;;
36497;SDS011;22513;51.222;6.480;2022-08-21T16:08:48;4.22;;;0.88;;
36497;SDS011;22513;51.222;6.480;2022-08-21T16:11:14;4.53;;;1.05;;
36497;SDS011;22513;51.222;6.480;2022-08-21T16:13:43;2.65;;;0.93;;
36497;SDS011;22513;51.222;6.480;2022-08-21T16:16:11;2.40;;;1.00;;
36497;SDS011;22513;51.222;6.480;2022-08-21T16:18:40;3.72;;;1.20;;
36497;SDS011;22513;51.222;6.480;2022-08-21T16:21:06;3.78;;;1.88;;
36497;SDS011;22513;51.222;6.480;2022-08-21T16:23:32;3.17;;;1.20;;
36497;SDS011;22513;51.222;6.480;2022-08-21T16:25:59;5.70;;;2.28;;
36497;SDS011;22513;51.222;6.480;2022-08-21T16:28:26;5.72;;;2.65;;
36497;SDS011;22513;51.222;6.480;2022-08-21T16:30:53;4.50;;;2.00;;
36497;SDS011;22513;51.222;6.480;2022-08-21T16:35:59;4.55;;;1.67;;
36497;SDS011;22513;51.222;6.480;2022-08-21T16:38:26;6.63;;;2.47;;
36497;SDS011;22513;51.222;6.480;2022-08-21T16:40:53;5.38;;;1.40;;
36497;SDS011;22513;51.222;6.480;2022-08-21T16:43:19;4.55;;;0.98;;
36497;SDS011;22513;51.222;6.480;2022-08-21T16:45:48;5.60;;;1.33;;
36497;SDS011;22513;51.222;6.480;2022-08-21T16:48:15;4.13;;;1.13;;
36497;SDS011;22513;51.222;6.480;2022-08-21T16:50:40;6.57;;;1.67;;
36497;SDS011;22513;51.222;6.480;2022-08-21T16:53:06;6.25;;;2.35;;
36497;SDS011;22513;51.222;6.480;2022-08-21T16:55:33;6.85;;;1.45;;
36497;SDS011;22513;51.222;6.480;2022-08-21T16:58:00;3.20;;;1.85;;
36497;SDS011;22513;51.222;6.480;2022-08-21T17:00:29;4.73;;;1.90;;